createdAt,value
2018-07-31T00:00:15.448Z,21.03
2018-07-31T00:02:43.992Z,20.97
2018-07-31T00:05:12.633Z,20.98
2018-07-31T00:07:41.172Z,21.02
2018-07-31T00:10:09.776Z,21.02
2018-07-31T00:12:38.312Z,20.83
2018-07-31T00:15:09.301Z,20.86
2018-07-31T00:17:37.892Z,20.80
2018-07-31T00:20:06.520Z,20.39
2018-07-31T00:22:35.083Z,20.09
2018-07-31T00:25:03.817Z,20.45
2018-07-31T00:27:32.396Z,20.45
2018-07-31T00:30:00.974Z,20.21
2018-07-31T00:32:29.817Z,20.31
2018-07-31T00:34:58.645Z,20.34
2018-07-31T00:37:27.163Z,20.50
2018-07-31T00:39:56.088Z,20.23
2018-07-31T00:42:24.592Z,20.24
2018-07-31T00:44:53.161Z,20.35
2018-07-31T00:47:21.675Z,19.99
2018-07-31T00:49:50.207Z,20.07
2018-07-31T00:52:19.437Z,19.96
2018-07-31T00:54:48.011Z,19.85
2018-07-31T00:57:16.508Z,19.92
2018-07-31T00:59:45.056Z,20.11
2018-07-31T01:02:13.595Z,20.15
2018-07-31T01:04:42.197Z,20.09
2018-07-31T01:07:10.707Z,19.65
2018-07-31T01:09:39.268Z,19.55
2018-07-31T01:12:07.836Z,19.53
2018-07-31T01:14:36.400Z,19.87
2018-07-31T01:17:05.060Z,20.03
2018-07-31T01:19:33.634Z,20.09
2018-07-31T01:22:02.176Z,19.90
2018-07-31T01:24:30.739Z,19.83
2018-07-31T01:26:59.268Z,19.78
2018-07-31T01:29:27.835Z,19.74
2018-07-31T01:31:56.418Z,19.74
2018-07-31T01:34:24.965Z,19.71
2018-07-31T01:36:53.532Z,19.69
2018-07-31T01:39:22.061Z,19.77
2018-07-31T01:41:51.920Z,19.71
2018-07-31T01:44:20.456Z,19.63
2018-07-31T01:46:49.000Z,19.71
2018-07-31T01:49:17.497Z,19.75
2018-07-31T01:51:46.031Z,19.59
2018-07-31T01:54:14.529Z,19.73
2018-07-31T01:56:43.123Z,19.43
2018-07-31T01:59:11.620Z,19.68
2018-07-31T02:01:40.152Z,19.50
2018-07-31T02:04:08.648Z,19.50
2018-07-31T02:06:37.208Z,19.12
2018-07-31T02:09:07.677Z,19.04
2018-07-31T02:11:36.265Z,18.99
2018-07-31T02:14:04.829Z,19.09
2018-07-31T02:16:33.344Z,19.22
2018-07-31T02:19:01.927Z,19.16
2018-07-31T02:21:30.452Z,19.16
2018-07-31T02:23:58.964Z,19.18
2018-07-31T02:26:27.484Z,19.14
2018-07-31T02:28:56.034Z,18.93
2018-07-31T02:31:24.563Z,18.91
2018-07-31T02:33:53.204Z,18.78
2018-07-31T02:36:21.869Z,17.81
2018-07-31T02:38:50.391Z,18.20
2018-07-31T02:41:18.996Z,18.59
2018-07-31T02:43:47.550Z,18.79
2018-07-31T02:46:16.183Z,18.52
2018-07-31T02:48:44.733Z,18.90
2018-07-31T02:51:13.331Z,19.07
2018-07-31T02:53:41.860Z,18.67
2018-07-31T02:56:10.445Z,18.39
2018-07-31T02:58:39.000Z,18.77
2018-07-31T03:01:07.605Z,18.93
2018-07-31T03:03:36.160Z,19.00
2018-07-31T03:06:04.757Z,19.02
2018-07-31T03:08:33.305Z,18.74
2018-07-31T03:11:01.867Z,18.63
2018-07-31T03:13:30.392Z,18.51
2018-07-31T03:15:58.949Z,18.06
2018-07-31T03:18:27.489Z,18.43
2018-07-31T03:20:56.083Z,18.06
2018-07-31T03:23:24.608Z,18.41
2018-07-31T03:25:53.172Z,17.97
2018-07-31T03:28:22.141Z,18.40
2018-07-31T03:30:50.692Z,18.59
2018-07-31T03:33:19.324Z,18.51
2018-07-31T03:35:47.852Z,18.75
2018-07-31T03:38:16.412Z,18.36
2018-07-31T03:40:44.965Z,18.56
2018-07-31T03:43:13.568Z,18.36
2018-07-31T03:45:42.312Z,18.33
2018-07-31T03:48:10.985Z,18.52
2018-07-31T03:50:39.560Z,18.36
2018-07-31T03:53:08.136Z,18.28
2018-07-31T03:55:36.744Z,18.31
2018-07-31T03:58:05.348Z,18.02
2018-07-31T04:00:33.889Z,18.34
2018-07-31T04:03:02.492Z,18.24
2018-07-31T04:05:31.128Z,18.52
2018-07-31T04:07:59.661Z,18.18
2018-07-31T04:10:28.197Z,18.06
2018-07-31T04:12:56.768Z,18.14
2018-07-31T04:15:25.309Z,18.40
2018-07-31T04:17:57.008Z,18.39
2018-07-31T04:20:26.168Z,18.35
2018-07-31T04:22:54.783Z,18.15
2018-07-31T04:25:23.737Z,18.00
2018-07-31T04:27:52.844Z,18.12
2018-07-31T04:30:21.385Z,18.46
2018-07-31T04:32:49.944Z,18.42
2018-07-31T04:35:18.522Z,18.36
2018-07-31T04:37:47.123Z,18.34
2018-07-31T04:40:22.100Z,18.18
2018-07-31T04:42:50.719Z,18.51
2018-07-31T04:45:19.257Z,18.57
2018-07-31T04:47:47.825Z,18.32
2018-07-31T04:50:16.366Z,18.67
2018-07-31T04:52:50.005Z,18.65
2018-07-31T04:55:19.148Z,18.82
2018-07-31T04:57:47.712Z,18.85
2018-07-31T05:00:16.281Z,19.06
2018-07-31T05:02:44.848Z,19.01
2018-07-31T05:05:13.385Z,18.97
2018-07-31T05:07:42.112Z,19.28
2018-07-31T05:10:13.015Z,19.22
2018-07-31T05:12:42.940Z,19.34
2018-07-31T05:15:11.641Z,19.48
2018-07-31T05:17:40.587Z,19.53
2018-07-31T05:20:10.489Z,19.40
2018-07-31T05:22:39.845Z,19.46
2018-07-31T05:25:08.574Z,19.40
2018-07-31T05:27:37.309Z,19.73
2018-07-31T05:30:07.832Z,19.63
2018-07-31T05:32:36.653Z,19.57
2018-07-31T05:35:05.637Z,19.51
2018-07-31T05:37:34.170Z,19.87
2018-07-31T05:40:02.732Z,20.09
2018-07-31T05:42:31.327Z,20.17
2018-07-31T05:45:00.687Z,20.15
2018-07-31T05:47:29.195Z,20.16
2018-07-31T05:49:57.745Z,20.18
2018-07-31T05:52:26.248Z,20.52
2018-07-31T05:54:54.780Z,20.70
2018-07-31T05:57:24.370Z,20.71
2018-07-31T05:59:52.887Z,20.64
2018-07-31T06:02:21.382Z,20.88
2018-07-31T06:04:49.928Z,20.82
2018-07-31T06:07:18.440Z,21.13
2018-07-31T06:09:46.960Z,21.28
2018-07-31T06:12:15.449Z,21.29
2018-07-31T06:14:43.984Z,21.67
2018-07-31T06:17:12.550Z,21.83
2018-07-31T06:19:41.076Z,21.95
2018-07-31T06:22:09.556Z,21.98
2018-07-31T06:24:38.101Z,22.08
2018-07-31T06:27:06.656Z,22.26
2018-07-31T06:29:35.259Z,22.37
2018-07-31T06:32:03.764Z,22.28
2018-07-31T06:34:32.288Z,22.53
2018-07-31T06:37:00.816Z,22.56
2018-07-31T06:39:29.338Z,22.64
2018-07-31T06:41:57.821Z,22.62
2018-07-31T06:44:26.390Z,22.79
2018-07-31T06:46:55.277Z,22.86
2018-07-31T06:49:23.862Z,23.01
2018-07-31T06:51:52.335Z,23.10
2018-07-31T06:54:20.869Z,23.37
2018-07-31T06:56:49.394Z,23.47
2018-07-31T06:59:17.912Z,23.39
2018-07-31T07:01:46.412Z,23.52
2018-07-31T07:04:14.940Z,23.58
2018-07-31T07:06:43.460Z,23.68
2018-07-31T07:09:12.660Z,23.78
2018-07-31T07:11:41.236Z,23.93
2018-07-31T07:14:09.760Z,24.05
2018-07-31T07:16:38.409Z,24.20
2018-07-31T07:19:06.948Z,24.31
2018-07-31T07:21:35.457Z,24.52
2018-07-31T07:24:04.017Z,24.60
2018-07-31T07:26:32.505Z,24.58
2018-07-31T07:29:01.021Z,24.77
2018-07-31T07:31:29.632Z,24.93
2018-07-31T07:33:58.241Z,24.99
2018-07-31T07:36:26.674Z,24.98
2018-07-31T07:38:55.412Z,25.18
2018-07-31T07:41:25.609Z,25.40
2018-07-31T07:43:54.540Z,25.51
2018-07-31T07:46:23.108Z,25.67
2018-07-31T07:48:51.624Z,25.63
2018-07-31T07:51:20.190Z,26.05
2018-07-31T07:53:48.727Z,25.92
2018-07-31T07:56:20.898Z,25.98
2018-07-31T07:58:49.430Z,26.26
2018-07-31T08:01:17.996Z,26.40
2018-07-31T08:03:46.553Z,26.30
2018-07-31T08:06:15.180Z,26.30
2018-07-31T08:08:43.703Z,26.35
2018-07-31T08:11:12.268Z,26.77
2018-07-31T08:13:40.789Z,26.90
2018-07-31T08:16:09.382Z,27.20
2018-07-31T08:18:37.920Z,27.06
2018-07-31T08:21:06.500Z,26.96
2018-07-31T08:23:35.112Z,26.95
2018-07-31T08:26:03.691Z,27.06
2018-07-31T08:28:32.227Z,27.06
2018-07-31T08:31:00.784Z,27.50
2018-07-31T08:33:31.529Z,27.63
2018-07-31T08:36:00.108Z,27.70
2018-07-31T08:38:28.716Z,27.81
2018-07-31T08:40:57.316Z,27.80
2018-07-31T08:43:26.602Z,27.87
2018-07-31T08:45:56.257Z,27.75
2018-07-31T08:48:24.731Z,27.72
2018-07-31T08:50:53.256Z,27.69
2018-07-31T08:53:21.772Z,27.63
2018-07-31T08:55:50.325Z,27.87
2018-07-31T08:58:18.818Z,27.77
2018-07-31T09:00:47.849Z,28.12
2018-07-31T09:03:16.406Z,28.34
2018-07-31T09:05:46.695Z,28.20
2018-07-31T09:08:17.276Z,28.12
2018-07-31T09:10:45.817Z,28.00
2018-07-31T09:13:14.864Z,28.49
2018-07-31T09:15:43.369Z,28.39
2018-07-31T09:18:12.094Z,28.60
2018-07-31T09:20:40.717Z,28.51
2018-07-31T09:23:09.241Z,28.59
2018-07-31T09:25:42.989Z,28.94
2018-07-31T09:28:14.341Z,28.76
2018-07-31T09:30:48.245Z,28.82
2018-07-31T09:33:16.769Z,28.71
2018-07-31T09:35:45.295Z,28.66
2018-07-31T09:38:13.824Z,28.92
2018-07-31T09:40:42.360Z,29.21
2018-07-31T09:43:11.268Z,29.49
2018-07-31T09:45:39.918Z,29.52
2018-07-31T09:48:08.447Z,29.79
2018-07-31T09:50:37.422Z,29.33
2018-07-31T09:53:06.264Z,29.07
2018-07-31T09:55:34.880Z,29.22
2018-07-31T09:58:03.824Z,29.58
2018-07-31T10:00:37.601Z,29.51
2018-07-31T10:03:06.416Z,29.92
2018-07-31T10:05:36.077Z,29.86
2018-07-31T10:08:04.611Z,29.35
2018-07-31T10:10:33.280Z,29.33
2018-07-31T10:13:02.133Z,29.30
2018-07-31T10:15:32.399Z,29.20
2018-07-31T10:18:01.652Z,29.35
2018-07-31T10:20:31.278Z,29.57
2018-07-31T10:23:00.860Z,29.78
2018-07-31T10:25:31.223Z,29.95
2018-07-31T10:28:00.890Z,29.94
2018-07-31T10:30:30.741Z,29.84
2018-07-31T10:33:00.385Z,29.84
2018-07-31T10:35:29.573Z,29.77
2018-07-31T10:37:58.136Z,30.01
2018-07-31T10:40:26.669Z,29.85
2018-07-31T10:42:55.610Z,30.19
2018-07-31T10:45:24.251Z,30.35
2018-07-31T10:47:52.818Z,30.49
2018-07-31T10:50:21.548Z,30.16
2018-07-31T10:52:50.921Z,30.28
2018-07-31T10:55:19.556Z,30.12
2018-07-31T10:57:48.108Z,30.72
2018-07-31T11:00:16.936Z,30.25
2018-07-31T11:02:45.647Z,30.10
2018-07-31T11:05:14.233Z,30.29
2018-07-31T11:07:42.840Z,30.33
2018-07-31T11:10:11.361Z,30.01
2018-07-31T11:12:39.933Z,30.42
2018-07-31T11:15:08.569Z,30.69
2018-07-31T11:17:37.225Z,31.36
2018-07-31T11:20:06.036Z,31.17
2018-07-31T11:22:34.875Z,30.53
2018-07-31T11:25:03.800Z,31.03
2018-07-31T11:27:32.390Z,31.43
2018-07-31T11:30:00.940Z,31.38
2018-07-31T11:32:29.503Z,31.34
2018-07-31T11:34:58.113Z,31.22
2018-07-31T11:37:26.747Z,30.75
2018-07-31T11:39:55.561Z,30.65
2018-07-31T11:42:24.092Z,30.43
2018-07-31T11:44:54.420Z,30.66
2018-07-31T11:47:23.222Z,30.69
2018-07-31T11:49:52.537Z,30.44
2018-07-31T11:52:21.001Z,30.74
2018-07-31T11:54:51.467Z,30.85
2018-07-31T11:57:19.957Z,31.58
2018-07-31T11:59:48.532Z,31.20
2018-07-31T12:02:17.041Z,31.62
2018-07-31T12:04:45.604Z,31.59
2018-07-31T12:07:14.088Z,31.49
2018-07-31T12:09:42.660Z,31.31
2018-07-31T12:12:11.477Z,31.70
2018-07-31T12:14:40.096Z,31.63
2018-07-31T12:17:09.556Z,31.25
2018-07-31T12:19:38.956Z,31.46
2018-07-31T12:22:08.632Z,31.68
2018-07-31T12:24:38.387Z,31.45
2018-07-31T12:27:08.384Z,31.29
2018-07-31T12:29:37.287Z,30.80
2018-07-31T12:32:07.451Z,30.70
2018-07-31T12:34:38.427Z,31.11
2018-07-31T12:37:14.796Z,31.19
2018-07-31T12:39:44.104Z,31.11
2018-07-31T12:42:13.136Z,31.21
2018-07-31T12:44:42.352Z,31.26
2018-07-31T12:47:13.517Z,31.11
2018-07-31T12:49:42.801Z,31.63
2018-07-31T12:52:11.336Z,31.76
2018-07-31T12:54:42.184Z,31.95
2018-07-31T12:57:14.287Z,31.58
2018-07-31T12:59:44.436Z,31.59
2018-07-31T13:02:15.821Z,32.55
2018-07-31T13:04:45.099Z,32.38
2018-07-31T13:07:14.942Z,32.38
2018-07-31T13:09:44.940Z,32.01
2018-07-31T13:12:13.946Z,32.00
2018-07-31T13:14:48.678Z,32.15
2018-07-31T13:17:18.769Z,32.26
2018-07-31T13:19:47.605Z,32.33
2018-07-31T13:22:16.099Z,32.14
2018-07-31T13:24:44.801Z,32.34
2018-07-31T13:27:13.883Z,32.34
2018-07-31T13:29:42.398Z,32.51
2018-07-31T13:32:10.933Z,32.25
2018-07-31T13:34:39.737Z,32.47
2018-07-31T13:37:08.724Z,32.32
2018-07-31T13:39:37.233Z,32.61
2018-07-31T13:42:05.979Z,32.48
2018-07-31T13:44:34.585Z,32.29
2018-07-31T13:47:03.488Z,32.71
2018-07-31T13:49:32.775Z,32.08
2018-07-31T13:52:01.257Z,32.28
2018-07-31T13:54:29.843Z,32.44
2018-07-31T13:56:58.533Z,32.31
2018-07-31T13:59:27.316Z,32.41
2018-07-31T14:01:56.389Z,31.96
2018-07-31T14:04:25.279Z,32.45
2018-07-31T14:06:53.956Z,32.31
2018-07-31T14:09:23.865Z,31.92
2018-07-31T14:11:52.740Z,31.88
2018-07-31T14:14:21.364Z,31.82
2018-07-31T14:16:49.965Z,31.46
2018-07-31T14:19:18.503Z,31.60
2018-07-31T14:21:47.056Z,31.98
2018-07-31T14:24:15.606Z,31.92
2018-07-31T14:26:44.476Z,31.92
2018-07-31T14:29:13.000Z,31.82
2018-07-31T14:31:41.561Z,32.10
2018-07-31T14:34:10.650Z,31.97
2018-07-31T14:36:40.408Z,32.14
2018-07-31T14:39:10.765Z,31.26
2018-07-31T14:41:40.367Z,31.08
2018-07-31T14:44:09.936Z,31.85
2018-07-31T14:46:38.525Z,32.57
2018-07-31T14:49:08.300Z,32.49
2018-07-31T14:51:36.854Z,32.65
2018-07-31T14:54:05.471Z,32.87
2018-07-31T14:56:34.481Z,32.57
2018-07-31T14:59:03.248Z,32.69
2018-07-31T15:01:35.887Z,32.72
2018-07-31T15:04:05.480Z,32.77
2018-07-31T15:06:34.604Z,32.85
2018-07-31T15:09:03.441Z,32.85
2018-07-31T15:11:32.069Z,33.17
2018-07-31T15:14:00.558Z,32.52
2018-07-31T15:16:33.986Z,32.49
2018-07-31T15:19:03.754Z,32.54
2018-07-31T15:21:32.594Z,32.83
2018-07-31T15:24:02.371Z,32.41
2018-07-31T15:26:42.029Z,32.72
2018-07-31T15:29:10.710Z,32.73
2018-07-31T15:31:40.340Z,32.73
2018-07-31T15:34:09.934Z,32.96
2018-07-31T15:36:38.617Z,33.40
2018-07-31T15:39:09.884Z,33.28
2018-07-31T15:41:39.133Z,33.50
2018-07-31T15:44:07.829Z,33.18
2018-07-31T15:46:36.433Z,32.94
2018-07-31T15:49:05.156Z,32.98
2018-07-31T15:51:33.940Z,33.24
2018-07-31T15:54:02.468Z,33.39
2018-07-31T15:56:31.301Z,33.48
2018-07-31T15:59:00.820Z,33.41
2018-07-31T16:01:29.668Z,33.24
2018-07-31T16:03:58.802Z,33.26
2018-07-31T16:06:27.397Z,33.90
2018-07-31T16:08:56.487Z,33.67
2018-07-31T16:11:25.980Z,33.27
2018-07-31T16:13:55.353Z,33.27
2018-07-31T16:16:24.128Z,33.79
2018-07-31T16:18:54.044Z,33.69
2018-07-31T16:21:22.619Z,34.01
2018-07-31T16:23:53.716Z,34.08
2018-07-31T16:26:22.211Z,34.15
2018-07-31T16:28:51.505Z,33.82
2018-07-31T16:31:21.086Z,34.12
2018-07-31T16:33:50.611Z,33.65
2018-07-31T16:36:20.004Z,33.56
2018-07-31T16:38:48.852Z,34.04
2018-07-31T16:41:17.614Z,34.32
2018-07-31T16:43:46.248Z,33.78
2018-07-31T16:46:14.850Z,33.73
2018-07-31T16:48:43.372Z,33.82
2018-07-31T16:51:12.460Z,33.54
2018-07-31T16:53:41.016Z,33.51
2018-07-31T16:56:10.209Z,33.61
2018-07-31T16:58:38.957Z,33.66
2018-07-31T17:01:13.374Z,33.61
2018-07-31T17:03:43.539Z,33.36
2018-07-31T17:06:12.412Z,33.39
2018-07-31T17:08:42.874Z,33.99
2018-07-31T17:11:13.402Z,35.58
2018-07-31T17:13:42.046Z,36.91
2018-07-31T17:16:10.773Z,35.66
2018-07-31T17:18:41.561Z,35.95
2018-07-31T17:21:11.063Z,34.96
2018-07-31T17:23:40.447Z,35.06
2018-07-31T17:26:09.169Z,34.76
2018-07-31T17:28:39.486Z,36.08
2018-07-31T17:31:08.453Z,35.30
2018-07-31T17:33:37.224Z,35.59
2018-07-31T17:36:06.918Z,34.64
2018-07-31T17:38:37.291Z,35.05
2018-07-31T17:41:06.568Z,33.93
2018-07-31T17:43:39.498Z,33.67
2018-07-31T17:46:09.207Z,35.09
2018-07-31T17:48:37.764Z,34.70
2018-07-31T17:51:07.837Z,34.11
2018-07-31T17:53:37.118Z,33.55
2018-07-31T17:56:05.759Z,33.43
2018-07-31T17:58:34.333Z,33.65
2018-07-31T18:01:02.864Z,32.97
2018-07-31T18:03:31.475Z,32.89
2018-07-31T18:05:59.995Z,33.05
2018-07-31T18:08:28.628Z,32.38
2018-07-31T18:10:57.173Z,32.10
2018-07-31T18:13:25.752Z,32.69
2018-07-31T18:15:54.275Z,32.68
2018-07-31T18:18:22.845Z,31.35
2018-07-31T18:20:51.376Z,30.97
2018-07-31T18:23:19.935Z,30.87
2018-07-31T18:25:48.474Z,30.76
2018-07-31T18:28:17.060Z,30.64
2018-07-31T18:30:45.602Z,30.34
2018-07-31T18:33:14.637Z,30.06
2018-07-31T18:35:43.174Z,29.79
2018-07-31T18:38:11.724Z,29.61
2018-07-31T18:40:40.257Z,29.71
2018-07-31T18:43:08.845Z,29.48
2018-07-31T18:45:37.761Z,29.30
2018-07-31T18:48:06.320Z,29.22
2018-07-31T18:50:34.937Z,29.23
2018-07-31T18:53:03.461Z,29.20
2018-07-31T18:55:32.073Z,29.17
2018-07-31T18:58:01.879Z,29.06
2018-07-31T19:00:30.585Z,28.90
2018-07-31T19:03:00.472Z,28.65
2018-07-31T19:05:29.086Z,28.59
2018-07-31T19:07:57.620Z,28.61
2018-07-31T19:10:26.188Z,28.43
2018-07-31T19:12:54.712Z,28.17
2018-07-31T19:15:23.344Z,28.05
2018-07-31T19:17:51.875Z,27.93
2018-07-31T19:20:20.433Z,27.39
2018-07-31T19:22:48.968Z,27.64
2018-07-31T19:25:17.532Z,27.70
2018-07-31T19:27:46.140Z,27.63
2018-07-31T19:30:14.695Z,27.58
2018-07-31T19:32:43.213Z,27.44
2018-07-31T19:35:11.789Z,27.26
2018-07-31T19:37:40.325Z,27.16
2018-07-31T19:40:08.882Z,27.16
2018-07-31T19:42:37.418Z,27.13
2018-07-31T19:45:06.049Z,27.15
2018-07-31T19:47:34.540Z,26.94
2018-07-31T19:50:03.088Z,26.86
2018-07-31T19:52:31.626Z,26.79
2018-07-31T19:55:00.204Z,26.51
2018-07-31T19:57:28.664Z,26.51
2018-07-31T19:59:57.192Z,26.48
2018-07-31T20:02:25.677Z,26.30
2018-07-31T20:04:54.225Z,26.06
2018-07-31T20:07:22.743Z,24.85
2018-07-31T20:09:51.276Z,24.80
2018-07-31T20:12:19.787Z,24.93
2018-07-31T20:14:48.357Z,25.11
2018-07-31T20:17:30.068Z,25.39
2018-07-31T20:20:26.093Z,25.43
2018-07-31T20:22:54.584Z,25.36
2018-07-31T20:25:23.149Z,25.24
2018-07-31T20:27:51.641Z,25.22
2018-07-31T20:30:20.168Z,25.32
2018-07-31T20:32:48.664Z,25.23
2018-07-31T20:35:18.556Z,25.14
2018-07-31T20:37:47.396Z,25.09
2018-07-31T20:40:16.708Z,24.30
2018-07-31T20:42:45.252Z,24.34
2018-07-31T20:45:14.677Z,24.48
2018-07-31T20:47:43.216Z,24.42
2018-07-31T20:50:11.787Z,23.65
2018-07-31T20:52:40.316Z,24.28
2018-07-31T20:55:08.932Z,24.54
2018-07-31T20:57:37.480Z,24.19
2018-07-31T21:00:06.567Z,24.14
2018-07-31T21:02:35.184Z,24.12
2018-07-31T21:05:03.844Z,23.75
2018-07-31T21:07:32.381Z,23.69
2018-07-31T21:10:01.134Z,23.83
2018-07-31T21:12:29.669Z,23.60
2018-07-31T21:14:59.771Z,23.58
2018-07-31T21:17:30.125Z,23.71
2018-07-31T21:20:04.173Z,23.60
2018-07-31T21:22:32.931Z,23.75
2018-07-31T21:25:01.456Z,23.90
2018-07-31T21:27:30.024Z,23.84
2018-07-31T21:29:58.597Z,23.90
2018-07-31T21:32:29.517Z,23.43
2018-07-31T21:34:58.415Z,22.85
2018-07-31T21:37:27.153Z,23.05
2018-07-31T21:39:57.111Z,23.35
2018-07-31T21:42:36.573Z,23.48
2018-07-31T21:45:15.168Z,23.57
2018-07-31T21:47:53.168Z,23.48
2018-07-31T21:50:25.729Z,23.08
2018-07-31T21:52:58.601Z,22.98
2018-07-31T21:55:30.999Z,23.06
2018-07-31T21:58:00.484Z,23.18
2018-07-31T22:00:36.283Z,23.35
2018-07-31T22:03:07.740Z,23.24
2018-07-31T22:05:41.638Z,23.13
2018-07-31T22:08:11.384Z,23.15
2018-07-31T22:10:39.925Z,22.64
2018-07-31T22:13:09.253Z,22.69
2018-07-31T22:15:38.573Z,22.98
2018-07-31T22:18:08.225Z,23.00
2018-07-31T22:20:39.006Z,22.93
2018-07-31T22:23:09.504Z,23.18
2018-07-31T22:25:40.085Z,22.44
2018-07-31T22:28:09.340Z,22.77
2018-07-31T22:30:39.995Z,22.90
2018-07-31T22:33:10.871Z,22.93
2018-07-31T22:35:40.989Z,22.93
2018-07-31T22:38:11.179Z,23.11
2018-07-31T22:40:42.104Z,22.17
2018-07-31T22:43:11.619Z,22.69
2018-07-31T22:45:43.960Z,22.90
2018-07-31T22:48:13.424Z,22.84
2018-07-31T22:50:43.230Z,22.85
2018-07-31T22:53:13.254Z,22.33
2018-07-31T22:55:46.673Z,22.28
2018-07-31T22:58:17.770Z,22.59
2018-07-31T23:00:47.939Z,22.26
2018-07-31T23:03:18.844Z,21.81
2018-07-31T23:05:48.661Z,22.20
2018-07-31T23:08:19.732Z,22.50
2018-07-31T23:10:52.427Z,22.67
2018-07-31T23:13:26.004Z,22.61
2018-07-31T23:15:56.227Z,22.64
2018-07-31T23:18:27.802Z,22.25
2018-07-31T23:20:58.389Z,22.41
2018-07-31T23:23:29.168Z,22.22
2018-07-31T23:25:59.942Z,22.42
2018-07-31T23:28:33.046Z,22.49
2018-07-31T23:31:02.233Z,22.58
2018-07-31T23:33:31.090Z,22.48
2018-07-31T23:36:01.785Z,22.54
2018-07-31T23:38:32.157Z,22.75
2018-07-31T23:41:00.684Z,22.75
2018-07-31T23:43:29.229Z,22.73
2018-07-31T23:45:57.753Z,22.78
2018-07-31T23:48:26.243Z,22.90
2018-07-31T23:50:55.033Z,22.62
2018-07-31T23:53:23.548Z,22.54
2018-07-31T23:55:52.044Z,22.72
2018-07-31T23:58:20.571Z,22.53
